createdAt,value
2022-09-30T00:01:27.675Z,9.00
2022-09-30T00:03:54.300Z,8.90
2022-09-30T00:06:21.044Z,8.80
2022-09-30T00:08:47.685Z,8.80
2022-09-30T00:11:16.413Z,8.80
2022-09-30T00:13:43.935Z,8.80
2022-09-30T00:16:11.360Z,8.80
2022-09-30T00:18:38.442Z,8.80
2022-09-30T00:23:56.665Z,8.90
2022-09-30T00:26:23.840Z,8.90
2022-09-30T00:28:55.484Z,8.90
2022-09-30T00:31:22.866Z,8.90
2022-09-30T00:34:06.940Z,8.90
2022-09-30T00:36:47.865Z,8.90
2022-09-30T00:39:16.026Z,8.80
2022-09-30T00:41:43.324Z,8.90
2022-09-30T00:44:28.952Z,8.90
2022-09-30T00:46:55.675Z,8.90
2022-09-30T00:49:24.278Z,8.90
2022-09-30T00:51:54.607Z,8.90
2022-09-30T00:54:26.444Z,8.90
2022-09-30T00:56:55.676Z,9.00
2022-09-30T00:59:25.200Z,8.90
2022-09-30T01:01:51.998Z,9.00
2022-09-30T01:04:20.765Z,9.00
2022-09-30T01:06:47.767Z,9.10
2022-09-30T01:09:14.480Z,9.10
2022-09-30T01:11:41.428Z,9.00
2022-09-30T01:14:13.577Z,8.90
2022-09-30T01:16:45.386Z,8.90
2022-09-30T01:19:30.961Z,8.90
2022-09-30T01:22:15.984Z,8.90
2022-09-30T01:25:01.466Z,9.00
2022-09-30T01:27:31.183Z,8.90
2022-09-30T01:30:10.262Z,9.00
2022-09-30T01:32:45.172Z,8.90
2022-09-30T01:35:17.773Z,8.80
2022-09-30T01:37:52.583Z,8.80
2022-09-30T01:40:22.660Z,8.70
2022-09-30T01:42:49.885Z,8.70
2022-09-30T01:45:18.661Z,8.70
2022-09-30T01:47:58.808Z,8.70
2022-09-30T01:50:40.885Z,8.70
2022-09-30T01:53:12.538Z,8.60
2022-09-30T01:55:45.613Z,8.60
2022-09-30T01:58:35.582Z,8.70
2022-09-30T02:01:06.107Z,8.60
2022-09-30T02:03:34.936Z,8.70
2022-09-30T02:06:03.781Z,8.70
2022-09-30T02:08:42.154Z,8.70
2022-09-30T02:11:12.071Z,8.70
2022-09-30T02:13:57.127Z,8.70
2022-09-30T02:16:29.351Z,8.70
2022-09-30T02:18:59.453Z,8.70
2022-09-30T02:21:27.726Z,8.70
2022-09-30T02:23:57.829Z,8.70
2022-09-30T02:26:26.940Z,8.60
2022-09-30T02:29:20.070Z,8.60
2022-09-30T02:31:49.636Z,8.60
2022-09-30T02:34:19.257Z,8.70
2022-09-30T02:36:59.105Z,8.70
2022-09-30T02:39:28.530Z,8.70
2022-09-30T02:42:00.341Z,8.80
2022-09-30T02:44:26.904Z,8.80
2022-09-30T02:47:01.032Z,8.80
2022-09-30T02:49:48.359Z,8.70
2022-09-30T02:52:33.345Z,8.80
2022-09-30T02:55:15.074Z,8.80
2022-09-30T02:57:53.834Z,8.70
2022-09-30T03:00:20.387Z,8.70
2022-09-30T03:02:46.954Z,8.70
2022-09-30T03:05:13.672Z,8.60
2022-09-30T03:07:40.296Z,8.60
2022-09-30T03:10:16.967Z,8.50
2022-09-30T03:12:55.260Z,8.40
2022-09-30T03:15:30.840Z,8.40
2022-09-30T03:17:57.361Z,8.50
2022-09-30T03:20:33.553Z,8.60
2022-09-30T03:23:00.048Z,8.60
2022-09-30T03:25:53.146Z,8.60
2022-09-30T03:28:25.821Z,8.60
2022-09-30T03:31:03.869Z,8.60
2022-09-30T03:33:38.447Z,8.50
2022-09-30T03:36:25.360Z,8.40
2022-09-30T03:38:57.958Z,8.40
2022-09-30T03:42:03.179Z,8.40
2022-09-30T03:44:36.422Z,8.40
2022-09-30T03:47:06.165Z,8.40
2022-09-30T03:49:37.588Z,8.40
2022-09-30T03:52:08.177Z,8.40
2022-09-30T03:54:38.948Z,8.40
2022-09-30T03:57:05.534Z,8.40
2022-09-30T03:59:32.197Z,8.40
2022-09-30T04:01:58.786Z,8.40
2022-09-30T04:04:25.452Z,8.40
2022-09-30T04:06:52.008Z,8.40
2022-09-30T04:09:18.582Z,8.50
2022-09-30T04:11:45.163Z,8.50
2022-09-30T04:14:11.686Z,8.40
2022-09-30T04:16:38.321Z,8.40
2022-09-30T04:19:04.901Z,8.40
2022-09-30T04:21:31.409Z,8.30
2022-09-30T04:23:58.061Z,8.30
2022-09-30T04:26:24.744Z,8.20
2022-09-30T04:28:52.474Z,8.20
2022-09-30T04:31:21.256Z,8.20
2022-09-30T04:33:47.946Z,8.20
2022-09-30T04:36:14.572Z,8.10
2022-09-30T04:38:41.128Z,8.10
2022-09-30T04:41:08.274Z,8.10
2022-09-30T04:43:34.760Z,8.10
2022-09-30T04:46:01.705Z,8.20
2022-09-30T04:48:31.274Z,8.30
2022-09-30T04:50:59.922Z,8.30
2022-09-30T04:53:26.528Z,8.40
2022-09-30T04:55:58.356Z,8.40
2022-09-30T04:58:24.992Z,8.30
2022-09-30T05:00:51.622Z,8.40
2022-09-30T05:03:19.848Z,8.40
2022-09-30T05:05:46.616Z,8.40
2022-09-30T05:08:13.401Z,8.30
2022-09-30T05:10:40.066Z,8.30
2022-09-30T05:13:06.572Z,8.30
2022-09-30T05:15:34.653Z,8.40
2022-09-30T05:18:01.846Z,8.30
2022-09-30T05:20:28.348Z,8.40
2022-09-30T05:22:56.070Z,8.40
2022-09-30T05:25:23.635Z,8.50
2022-09-30T05:27:50.846Z,8.60
2022-09-30T05:30:17.390Z,8.60
2022-09-30T05:32:44.176Z,8.60
2022-09-30T05:35:12.033Z,8.60
2022-09-30T05:37:38.899Z,8.50
2022-09-30T05:40:06.159Z,8.50
2022-09-30T05:42:36.230Z,8.50
2022-09-30T05:45:03.928Z,8.50
2022-09-30T05:47:30.472Z,8.60
2022-09-30T05:49:56.973Z,8.60
2022-09-30T05:52:23.488Z,8.60
2022-09-30T05:54:50.639Z,8.70
2022-09-30T05:57:17.368Z,8.70
2022-09-30T05:59:43.977Z,8.80
2022-09-30T06:02:10.953Z,8.90
2022-09-30T06:04:37.676Z,9.00
2022-09-30T06:07:10.220Z,8.90
2022-09-30T06:09:37.290Z,8.90
2022-09-30T06:12:04.037Z,9.00
2022-09-30T06:14:30.652Z,9.00
2022-09-30T06:16:57.206Z,9.00
2022-09-30T06:19:24.087Z,9.00
2022-09-30T06:21:50.725Z,9.00
2022-09-30T06:24:17.251Z,9.10
2022-09-30T06:26:43.814Z,9.10
2022-09-30T06:29:10.385Z,9.00
2022-09-30T06:31:37.307Z,9.00
2022-09-30T06:34:04.530Z,9.00
2022-09-30T06:36:33.320Z,8.90
2022-09-30T06:39:03.602Z,8.90
2022-09-30T06:41:30.614Z,8.90
2022-09-30T06:43:57.237Z,8.90
2022-09-30T06:46:30.297Z,8.90
2022-09-30T06:49:09.107Z,8.90
2022-09-30T06:51:39.036Z,8.90
2022-09-30T06:54:05.675Z,8.90
2022-09-30T06:56:32.199Z,8.90
2022-09-30T06:58:58.765Z,8.90
2022-09-30T07:01:25.377Z,8.90
2022-09-30T07:03:57.835Z,9.00
2022-09-30T07:06:26.342Z,9.10
2022-09-30T07:08:54.102Z,9.20
2022-09-30T07:11:20.781Z,9.20
2022-09-30T07:13:49.141Z,9.30
2022-09-30T07:16:17.026Z,9.40
2022-09-30T07:18:45.040Z,9.40
2022-09-30T07:21:13.531Z,9.50
2022-09-30T07:23:45.613Z,9.50
2022-09-30T07:26:12.142Z,9.60
2022-09-30T07:28:39.473Z,9.60
2022-09-30T07:31:32.040Z,9.70
2022-09-30T07:33:58.457Z,9.70
2022-09-30T07:36:32.698Z,9.80
2022-09-30T07:39:05.389Z,9.90
2022-09-30T07:41:32.356Z,9.90
2022-09-30T07:43:59.218Z,9.90
2022-09-30T07:46:27.458Z,10.00
2022-09-30T07:48:57.340Z,10.10
2022-09-30T07:51:26.547Z,10.10
2022-09-30T07:53:54.602Z,10.10
2022-09-30T07:56:22.365Z,10.20
2022-09-30T07:58:48.955Z,10.30
2022-09-30T08:01:16.609Z,10.40
2022-09-30T08:03:44.969Z,10.50
2022-09-30T08:06:13.705Z,10.50
2022-09-30T08:08:41.140Z,10.60
2022-09-30T08:11:07.686Z,10.60
2022-09-30T08:13:34.286Z,10.70
2022-09-30T08:16:00.992Z,10.80
2022-09-30T08:18:30.528Z,10.90
2022-09-30T08:20:57.597Z,10.90
2022-09-30T08:23:24.227Z,10.90
2022-09-30T08:25:50.876Z,10.90
2022-09-30T08:28:18.942Z,10.90
2022-09-30T08:30:45.592Z,11.00
2022-09-30T08:33:12.200Z,11.10
2022-09-30T08:35:38.715Z,11.20
2022-09-30T08:38:05.291Z,11.20
2022-09-30T08:40:33.582Z,11.20
2022-09-30T08:43:09.030Z,11.20
2022-09-30T08:45:35.601Z,11.20
2022-09-30T08:50:53.737Z,11.30
2022-09-30T08:53:25.138Z,11.30
2022-09-30T08:55:52.677Z,11.30
2022-09-30T08:58:26.656Z,11.30
2022-09-30T09:00:55.680Z,11.40
2022-09-30T09:03:26.167Z,11.50
2022-09-30T09:06:01.605Z,11.50
2022-09-30T09:08:43.439Z,11.60
2022-09-30T09:11:17.586Z,11.70
2022-09-30T09:13:54.741Z,11.80
2022-09-30T09:16:21.260Z,11.90
2022-09-30T09:18:58.060Z,12.00
2022-09-30T09:21:39.948Z,12.00
2022-09-30T09:24:12.457Z,12.10
2022-09-30T09:26:38.978Z,12.10
2022-09-30T09:29:10.849Z,12.10
2022-09-30T09:31:37.472Z,12.00
2022-09-30T09:34:09.745Z,12.00
2022-09-30T09:36:36.306Z,12.00
2022-09-30T09:39:09.576Z,12.10
2022-09-30T09:41:46.327Z,12.20
2022-09-30T09:44:34.735Z,12.30
2022-09-30T09:47:05.336Z,12.30
2022-09-30T09:49:41.692Z,12.30
2022-09-30T09:52:14.730Z,12.30
2022-09-30T09:54:41.331Z,12.30
2022-09-30T09:57:11.793Z,12.40
2022-09-30T09:59:54.012Z,12.40
2022-09-30T10:02:28.404Z,12.40
2022-09-30T10:05:03.457Z,12.50
2022-09-30T10:07:31.612Z,12.30
2022-09-30T10:10:06.850Z,12.30
2022-09-30T10:12:34.286Z,12.40
2022-09-30T10:15:03.129Z,12.50
2022-09-30T10:17:31.620Z,12.50
2022-09-30T10:20:16.357Z,12.50
2022-09-30T10:22:43.191Z,12.60
2022-09-30T10:25:09.838Z,12.70
2022-09-30T10:27:36.506Z,12.70
2022-09-30T10:30:05.151Z,12.90
2022-09-30T10:32:32.059Z,12.90
2022-09-30T10:35:07.120Z,13.00
2022-09-30T10:37:33.765Z,13.10
2022-09-30T10:40:02.437Z,13.20
2022-09-30T10:42:33.704Z,13.20
2022-09-30T10:45:20.555Z,13.30
2022-09-30T10:47:49.714Z,13.40
2022-09-30T10:50:20.503Z,13.50
2022-09-30T10:52:49.355Z,13.60
2022-09-30T10:55:24.702Z,13.60
2022-09-30T10:57:52.876Z,13.60
2022-09-30T11:00:19.584Z,13.50
2022-09-30T11:02:55.132Z,13.50
2022-09-30T11:05:22.853Z,13.50
2022-09-30T11:07:58.468Z,13.40
2022-09-30T11:10:31.163Z,13.20
2022-09-30T11:13:00.827Z,13.20
2022-09-30T11:15:32.621Z,13.20
2022-09-30T11:18:05.732Z,13.30
2022-09-30T11:20:40.174Z,13.30
2022-09-30T11:23:12.598Z,13.30
2022-09-30T11:25:39.150Z,13.20
2022-09-30T11:28:11.978Z,13.30
2022-09-30T11:30:44.291Z,13.30
2022-09-30T11:33:16.772Z,13.30
2022-09-30T11:35:43.433Z,13.40
2022-09-30T11:38:23.149Z,13.50
2022-09-30T11:40:56.228Z,13.60
2022-09-30T11:43:48.000Z,13.70
2022-09-30T11:46:17.527Z,13.70
2022-09-30T11:49:03.378Z,13.80
2022-09-30T11:51:38.990Z,13.70
2022-09-30T11:54:19.377Z,13.60
2022-09-30T11:56:49.948Z,13.60
2022-09-30T11:59:22.243Z,13.70
2022-09-30T12:01:50.241Z,13.80
2022-09-30T12:04:24.361Z,13.90
2022-09-30T12:06:58.166Z,14.10
2022-09-30T12:09:31.603Z,14.10
2022-09-30T12:12:01.721Z,14.30
2022-09-30T12:14:36.325Z,14.20
2022-09-30T12:17:05.702Z,14.20
2022-09-30T12:19:44.397Z,14.10
2022-09-30T12:22:14.364Z,14.10
2022-09-30T12:24:42.481Z,14.10
2022-09-30T12:27:29.553Z,14.10
2022-09-30T12:30:20.614Z,14.10
2022-09-30T12:32:53.492Z,14.10
2022-09-30T12:35:39.116Z,14.10
2022-09-30T12:38:30.165Z,14.10
2022-09-30T12:41:02.642Z,14.10
2022-09-30T12:43:38.657Z,14.10
2022-09-30T12:46:23.971Z,14.10
2022-09-30T12:48:55.858Z,14.20
2022-09-30T12:51:31.044Z,14.30
2022-09-30T12:54:26.830Z,14.40
2022-09-30T12:56:54.751Z,14.40
2022-09-30T12:59:26.493Z,14.50
2022-09-30T13:01:53.196Z,14.60
2022-09-30T13:04:31.871Z,14.60
2022-09-30T13:06:58.446Z,14.50
2022-09-30T13:09:34.896Z,14.60
2022-09-30T13:12:01.408Z,14.70
2022-09-30T13:14:32.935Z,14.80
2022-09-30T13:17:02.729Z,14.50
2022-09-30T13:19:44.345Z,14.60
2022-09-30T13:22:34.005Z,14.60
2022-09-30T13:25:02.694Z,14.60
2022-09-30T13:27:53.801Z,14.60
2022-09-30T13:30:20.449Z,14.60
2022-09-30T13:32:57.503Z,14.60
2022-09-30T13:35:44.313Z,14.60
2022-09-30T13:38:14.115Z,14.60
2022-09-30T13:41:00.860Z,14.70
2022-09-30T13:43:43.714Z,14.70
2022-09-30T13:46:19.781Z,14.80
2022-09-30T13:48:55.442Z,14.80
2022-09-30T13:51:24.234Z,14.70
2022-09-30T13:53:52.846Z,14.70
2022-09-30T13:56:20.037Z,14.70
2022-09-30T14:02:11.717Z,14.70
2022-09-30T14:04:41.253Z,14.90
2022-09-30T14:07:20.952Z,14.70
2022-09-30T14:10:08.440Z,14.60
2022-09-30T14:12:56.831Z,14.50
2022-09-30T14:15:34.607Z,14.40
2022-09-30T14:18:27.921Z,14.40
2022-09-30T14:21:01.806Z,14.30
2022-09-30T14:23:28.780Z,14.40
2022-09-30T14:26:14.493Z,14.40
2022-09-30T14:28:48.230Z,14.40
2022-09-30T14:31:15.428Z,14.30
2022-09-30T14:33:43.806Z,14.30
2022-09-30T14:36:15.726Z,14.30
2022-09-30T14:38:44.142Z,14.40
2022-09-30T14:41:14.980Z,14.40
2022-09-30T14:43:43.675Z,14.30
2022-09-30T14:46:34.337Z,14.30
2022-09-30T14:49:06.064Z,14.10
2022-09-30T14:51:37.821Z,14.00
2022-09-30T14:54:06.196Z,13.90
2022-09-30T14:56:35.387Z,13.80
2022-09-30T14:59:16.083Z,13.70
2022-09-30T15:01:42.621Z,13.60
2022-09-30T15:04:17.154Z,13.60
2022-09-30T15:06:45.446Z,13.70
2022-09-30T15:09:17.109Z,13.70
2022-09-30T15:11:43.733Z,13.70
2022-09-30T15:14:18.084Z,13.80
2022-09-30T15:16:49.859Z,13.90
2022-09-30T15:19:21.521Z,14.00
2022-09-30T15:21:49.112Z,14.10
2022-09-30T15:24:17.372Z,13.90
2022-09-30T15:26:44.872Z,13.90
2022-09-30T15:29:13.587Z,13.80
2022-09-30T15:31:45.067Z,13.70
2022-09-30T15:34:11.886Z,13.70
2022-09-30T15:36:38.874Z,13.60
2022-09-30T15:39:07.001Z,13.50
2022-09-30T15:41:41.214Z,13.30
2022-09-30T15:44:15.570Z,13.30
2022-09-30T15:46:59.652Z,13.20
2022-09-30T15:49:35.477Z,13.10
2022-09-30T15:52:20.254Z,12.90
2022-09-30T15:54:46.802Z,12.80
2022-09-30T15:57:32.327Z,12.70
2022-09-30T16:00:00.802Z,12.60
2022-09-30T16:02:28.280Z,12.50
2022-09-30T16:04:55.256Z,12.40
2022-09-30T16:07:28.174Z,12.30
2022-09-30T16:09:56.660Z,12.20
2022-09-30T16:12:29.760Z,12.10
2022-09-30T16:15:14.166Z,12.00
2022-09-30T16:17:45.590Z,11.90
2022-09-30T16:20:14.872Z,11.90
2022-09-30T16:22:41.432Z,11.80
2022-09-30T16:25:18.395Z,11.70
2022-09-30T16:27:45.203Z,11.70
2022-09-30T16:30:15.664Z,11.60
2022-09-30T16:32:43.775Z,11.50
2022-09-30T16:35:15.721Z,11.40
2022-09-30T16:37:44.018Z,11.30
2022-09-30T16:40:19.643Z,11.30
2022-09-30T16:42:46.354Z,11.30
2022-09-30T16:45:14.858Z,11.20
2022-09-30T16:47:42.138Z,11.10
2022-09-30T16:50:15.203Z,11.00
2022-09-30T16:52:42.149Z,11.00
2022-09-30T16:55:08.830Z,11.00
2022-09-30T16:57:35.421Z,10.90
2022-09-30T17:00:01.993Z,11.00
2022-09-30T17:02:28.551Z,11.00
2022-09-30T17:04:55.160Z,10.90
2022-09-30T17:07:21.662Z,10.90
2022-09-30T17:09:49.290Z,10.90
2022-09-30T17:12:15.780Z,10.90
2022-09-30T17:14:43.651Z,10.80
2022-09-30T17:17:13.455Z,10.90
2022-09-30T17:19:40.556Z,10.90
2022-09-30T17:22:07.069Z,10.90
2022-09-30T17:24:33.764Z,10.90
2022-09-30T17:27:00.507Z,10.90
2022-09-30T17:29:32.506Z,10.90
2022-09-30T17:31:59.481Z,10.80
2022-09-30T17:34:27.797Z,10.70
2022-09-30T17:36:56.119Z,10.70
2022-09-30T17:39:22.744Z,10.70
2022-09-30T17:42:08.292Z,10.60
2022-09-30T17:44:34.894Z,10.60
2022-09-30T17:47:01.950Z,10.60
2022-09-30T17:49:35.548Z,10.60
2022-09-30T17:54:52.985Z,10.60
2022-09-30T17:57:20.385Z,10.60
2022-09-30T17:59:46.964Z,10.60
2022-09-30T18:02:15.717Z,10.60
2022-09-30T18:04:42.342Z,10.50
2022-09-30T18:07:10.031Z,10.60
2022-09-30T18:09:38.182Z,10.60
2022-09-30T18:12:05.578Z,10.60
2022-09-30T18:14:38.392Z,10.60
2022-09-30T18:17:05.581Z,10.60
2022-09-30T18:19:32.715Z,10.60
2022-09-30T18:21:59.284Z,10.50
2022-09-30T18:24:44.587Z,10.50
2022-09-30T18:27:11.754Z,10.40
2022-09-30T18:29:38.656Z,10.30
2022-09-30T18:32:05.864Z,10.30
2022-09-30T18:34:32.613Z,10.20
2022-09-30T18:37:05.072Z,10.20
2022-09-30T18:39:31.729Z,10.10
2022-09-30T18:41:58.287Z,10.10
2022-09-30T18:44:25.660Z,10.00
2022-09-30T18:46:53.306Z,9.90
2022-09-30T18:49:19.853Z,9.90
2022-09-30T18:51:47.950Z,9.90
2022-09-30T18:54:16.388Z,9.80
2022-09-30T18:56:44.265Z,9.70
2022-09-30T18:59:19.367Z,9.60
2022-09-30T19:01:49.362Z,9.60
2022-09-30T19:04:16.071Z,9.50
2022-09-30T19:06:43.308Z,9.40
2022-09-30T19:09:10.000Z,9.40
2022-09-30T19:11:37.034Z,9.40
2022-09-30T19:14:03.809Z,9.40
2022-09-30T19:16:35.325Z,9.40
2022-09-30T19:19:05.159Z,9.30
2022-09-30T19:21:36.765Z,9.40
2022-09-30T19:24:07.894Z,9.30
2022-09-30T19:26:36.190Z,9.20
2022-09-30T19:29:03.372Z,9.20
2022-09-30T19:31:30.441Z,9.10
2022-09-30T19:33:58.893Z,9.00
2022-09-30T19:36:26.763Z,9.00
2022-09-30T19:39:03.654Z,9.00
2022-09-30T19:41:35.910Z,9.00
2022-09-30T19:44:02.677Z,8.80
2022-09-30T19:46:29.592Z,8.70
2022-09-30T19:48:56.436Z,8.70
2022-09-30T19:51:23.127Z,8.70
2022-09-30T19:54:00.320Z,8.70
2022-09-30T19:56:28.789Z,8.70
2022-09-30T19:58:59.074Z,8.70
2022-09-30T20:01:29.563Z,8.70
2022-09-30T20:03:57.277Z,8.70
2022-09-30T20:06:23.811Z,8.70
2022-09-30T20:08:52.038Z,8.70
2022-09-30T20:11:22.345Z,8.60
2022-09-30T20:13:49.727Z,8.60
2022-09-30T20:16:16.899Z,8.50
2022-09-30T20:18:43.768Z,8.40
2022-09-30T20:21:11.256Z,8.40
2022-09-30T20:23:39.008Z,8.30
2022-09-30T20:26:06.610Z,8.30
2022-09-30T20:28:33.238Z,8.30
2022-09-30T20:31:04.618Z,8.20
2022-09-30T20:33:31.145Z,8.20
2022-09-30T20:35:59.439Z,8.10
2022-09-30T20:38:26.005Z,8.10
2022-09-30T20:40:56.568Z,8.10
2022-09-30T20:43:23.276Z,8.20
2022-09-30T20:45:53.711Z,8.10
2022-09-30T20:48:20.509Z,8.10
2022-09-30T20:50:49.237Z,8.10
2022-09-30T20:53:15.885Z,8.00
2022-09-30T20:55:45.890Z,8.00
2022-09-30T20:58:12.749Z,8.00
2022-09-30T21:00:40.373Z,8.00
2022-09-30T21:03:07.948Z,8.00
2022-09-30T21:05:34.610Z,7.90
2022-09-30T21:08:02.153Z,7.90
2022-09-30T21:10:29.737Z,7.90
2022-09-30T21:12:58.707Z,7.80
2022-09-30T21:15:25.401Z,7.80
2022-09-30T21:17:54.261Z,7.80
2022-09-30T21:20:21.635Z,7.70
2022-09-30T21:22:48.156Z,7.80
2022-09-30T21:25:14.736Z,7.80
2022-09-30T21:27:45.161Z,7.70
2022-09-30T21:30:11.865Z,7.70
2022-09-30T21:32:41.417Z,7.60
2022-09-30T21:35:08.176Z,7.60
2022-09-30T21:37:34.808Z,7.60
2022-09-30T21:40:01.871Z,7.50
2022-09-30T21:42:28.428Z,7.50
2022-09-30T21:44:55.299Z,7.50
2022-09-30T21:47:21.837Z,7.50
2022-09-30T21:49:48.795Z,7.50
2022-09-30T21:52:15.312Z,7.50
2022-09-30T21:54:41.832Z,7.50
2022-09-30T21:57:08.539Z,7.50
2022-09-30T21:59:42.249Z,7.50
2022-09-30T22:02:09.739Z,7.40
2022-09-30T22:04:38.809Z,7.40
2022-09-30T22:07:06.251Z,7.40
2022-09-30T22:09:38.532Z,7.40
2022-09-30T22:12:08.612Z,7.40
2022-09-30T22:14:36.560Z,7.40
2022-09-30T22:17:05.106Z,7.40
2022-09-30T22:19:31.621Z,7.30
2022-09-30T22:21:58.124Z,7.30
2022-09-30T22:24:24.673Z,7.30
2022-09-30T22:26:51.760Z,7.30
2022-09-30T22:29:18.312Z,7.30
2022-09-30T22:31:44.909Z,7.30
2022-09-30T22:34:31.770Z,7.20
2022-09-30T22:37:16.892Z,7.20
2022-09-30T22:39:43.447Z,7.10
2022-09-30T22:42:10.153Z,7.00
2022-09-30T22:44:37.139Z,7.00
2022-09-30T22:47:04.228Z,7.00
2022-09-30T22:49:34.273Z,7.00
2022-09-30T22:52:01.959Z,6.90
2022-09-30T22:54:29.075Z,6.90
2022-09-30T22:56:56.038Z,6.80
2022-09-30T22:59:23.462Z,6.90
2022-09-30T23:01:50.331Z,6.90
2022-09-30T23:04:17.631Z,6.90
2022-09-30T23:06:48.428Z,6.90
2022-09-30T23:09:15.263Z,6.90
2022-09-30T23:11:42.349Z,7.00
2022-09-30T23:14:09.020Z,7.00
2022-09-30T23:16:35.755Z,7.00
2022-09-30T23:19:02.351Z,6.90
2022-09-30T23:21:28.901Z,6.80
2022-09-30T23:23:55.430Z,6.80
2022-09-30T23:26:25.270Z,6.70
2022-09-30T23:28:52.178Z,6.60
2022-09-30T23:31:18.960Z,6.60
2022-09-30T23:33:49.704Z,6.60
2022-09-30T23:36:17.136Z,6.60
2022-09-30T23:38:43.932Z,6.50
2022-09-30T23:41:10.496Z,6.50
2022-09-30T23:43:37.212Z,6.50
2022-09-30T23:46:06.148Z,6.40
2022-09-30T23:48:34.199Z,6.40
2022-09-30T23:51:01.075Z,6.40
2022-09-30T23:53:27.597Z,6.40
2022-09-30T23:55:55.241Z,6.30
2022-09-30T23:58:22.619Z,6.30
